createdAt,value
2022-09-13T00:00:04.988Z,13.72
2022-09-13T00:02:34.059Z,13.68
2022-09-13T00:05:01.897Z,13.64
2022-09-13T00:07:29.555Z,13.62
2022-09-13T00:09:57.218Z,13.60
2022-09-13T00:12:24.911Z,13.58
2022-09-13T00:14:52.549Z,13.55
2022-09-13T00:17:20.541Z,13.53
2022-09-13T00:19:49.506Z,13.52
2022-09-13T00:22:17.135Z,13.50
2022-09-13T00:24:44.796Z,13.46
2022-09-13T00:27:13.028Z,13.45
2022-09-13T00:29:40.754Z,13.43
2022-09-13T00:32:08.356Z,13.43
2022-09-13T00:34:35.992Z,13.39
2022-09-13T00:37:05.422Z,13.39
2022-09-13T00:39:33.199Z,13.36
2022-09-13T00:42:00.840Z,13.34
2022-09-13T00:44:51.026Z,13.34
2022-09-13T00:47:21.957Z,13.31
2022-09-13T00:49:52.341Z,13.31
2022-09-13T00:52:25.083Z,13.30
2022-09-13T00:54:58.580Z,13.31
2022-09-13T00:57:27.883Z,13.29
2022-09-13T01:00:04.035Z,13.28
2022-09-13T01:02:32.433Z,13.29
2022-09-13T01:05:00.730Z,13.28
2022-09-13T01:07:29.769Z,13.26
2022-09-13T01:09:58.146Z,13.27
2022-09-13T01:12:35.355Z,13.26
2022-09-13T01:15:06.020Z,13.24
2022-09-13T01:17:35.195Z,13.22
2022-09-13T01:20:05.787Z,13.23
2022-09-13T01:22:54.008Z,13.20
2022-09-13T01:25:52.170Z,13.21
2022-09-13T01:28:39.999Z,13.19
2022-09-13T01:31:15.508Z,13.19
2022-09-13T01:33:59.154Z,13.18
2022-09-13T01:36:44.827Z,13.17
2022-09-13T01:39:18.759Z,13.17
2022-09-13T01:41:57.692Z,13.17
2022-09-13T01:44:36.708Z,13.14
2022-09-13T01:47:18.519Z,13.12
2022-09-13T01:49:54.830Z,13.10
2022-09-13T01:52:28.949Z,13.08
2022-09-13T01:55:04.304Z,13.04
2022-09-13T01:57:36.685Z,13.02
2022-09-13T02:00:10.138Z,13.01
2022-09-13T02:02:47.202Z,12.99
2022-09-13T02:05:20.137Z,12.99
2022-09-13T02:07:54.941Z,12.99
2022-09-13T02:10:27.212Z,12.99
2022-09-13T02:12:58.814Z,12.99
2022-09-13T02:15:32.943Z,12.98
2022-09-13T02:18:08.558Z,12.98
2022-09-13T02:20:39.623Z,12.97
2022-09-13T02:23:11.811Z,12.95
2022-09-13T02:25:41.879Z,12.93
2022-09-13T02:28:14.000Z,12.89
2022-09-13T02:30:47.629Z,12.89
2022-09-13T02:33:19.819Z,12.90
2022-09-13T02:35:52.451Z,12.87
2022-09-13T02:38:25.843Z,12.86
2022-09-13T02:40:58.535Z,12.85
2022-09-13T02:43:32.504Z,12.82
2022-09-13T02:46:13.965Z,12.82
2022-09-13T02:48:53.500Z,12.82
2022-09-13T02:51:29.154Z,12.81
2022-09-13T02:54:05.387Z,12.79
2022-09-13T02:56:44.715Z,12.79
2022-09-13T02:59:16.940Z,12.77
2022-09-13T03:01:51.615Z,12.77
2022-09-13T03:04:21.095Z,12.78
2022-09-13T03:06:50.847Z,12.77
2022-09-13T03:09:19.284Z,12.77
2022-09-13T03:12:11.281Z,12.79
2022-09-13T03:14:48.481Z,12.80
2022-09-13T03:17:29.911Z,12.82
2022-09-13T03:20:15.506Z,12.82
2022-09-13T03:23:14.080Z,12.86
2022-09-13T03:25:56.009Z,12.87
2022-09-13T03:28:35.831Z,12.88
2022-09-13T03:31:09.847Z,12.89
2022-09-13T03:33:45.128Z,12.90
2022-09-13T03:36:21.483Z,12.89
2022-09-13T03:38:58.593Z,12.90
2022-09-13T03:41:31.333Z,12.90
2022-09-13T03:44:03.083Z,12.89
2022-09-13T03:46:34.816Z,12.92
2022-09-13T03:49:05.975Z,12.91
2022-09-13T03:51:34.988Z,12.91
2022-09-13T03:54:05.838Z,12.90
2022-09-13T03:56:33.460Z,12.90
2022-09-13T03:59:01.086Z,12.93
2022-09-13T04:01:29.246Z,12.93
2022-09-13T04:03:57.253Z,12.95
2022-09-13T04:06:24.929Z,12.96
2022-09-13T04:08:53.955Z,12.98
2022-09-13T04:11:22.115Z,12.97
2022-09-13T04:13:49.971Z,12.99
2022-09-13T04:16:17.804Z,13.00
2022-09-13T04:18:45.433Z,13.00
2022-09-13T04:21:13.042Z,13.02
2022-09-13T04:23:40.666Z,13.04
2022-09-13T04:26:10.760Z,13.06
2022-09-13T04:28:38.410Z,13.09
2022-09-13T04:31:06.338Z,13.12
2022-09-13T04:33:34.022Z,13.14
2022-09-13T04:36:10.464Z,13.18
2022-09-13T04:38:38.169Z,13.19
2022-09-13T04:41:05.984Z,13.21
2022-09-13T04:43:34.940Z,13.24
2022-09-13T04:46:02.631Z,13.27
2022-09-13T04:48:30.264Z,13.28
2022-09-13T04:51:02.957Z,13.31
2022-09-13T04:53:30.550Z,13.33
2022-09-13T04:56:01.639Z,13.35
2022-09-13T04:58:29.521Z,13.35
2022-09-13T05:01:03.231Z,13.37
2022-09-13T05:03:31.793Z,13.38
2022-09-13T05:06:03.210Z,13.39
2022-09-13T05:08:31.003Z,13.41
2022-09-13T05:10:59.011Z,13.44
2022-09-13T05:13:26.913Z,13.46
2022-09-13T05:15:57.178Z,13.49
2022-09-13T05:18:27.447Z,13.50
2022-09-13T05:20:56.321Z,13.53
2022-09-13T05:23:24.545Z,13.54
2022-09-13T05:25:55.442Z,13.55
2022-09-13T05:28:23.148Z,13.55
2022-09-13T05:30:57.909Z,13.57
2022-09-13T05:33:27.646Z,13.58
2022-09-13T05:35:55.818Z,13.59
2022-09-13T05:38:23.820Z,13.60
2022-09-13T05:40:56.327Z,13.63
2022-09-13T05:43:26.324Z,13.65
2022-09-13T05:46:01.706Z,13.67
2022-09-13T05:48:31.125Z,13.69
2022-09-13T05:51:05.981Z,13.72
2022-09-13T05:53:33.831Z,13.74
2022-09-13T05:56:01.636Z,13.75
2022-09-13T05:58:29.259Z,13.76
2022-09-13T06:00:58.384Z,13.77
2022-09-13T06:03:26.445Z,13.79
2022-09-13T06:05:58.552Z,13.79
2022-09-13T06:08:26.808Z,13.82
2022-09-13T06:10:56.046Z,13.87
2022-09-13T06:13:23.692Z,13.90
2022-09-13T06:15:51.466Z,13.94
2022-09-13T06:18:19.513Z,13.95
2022-09-13T06:20:48.081Z,13.99
2022-09-13T06:23:17.819Z,14.03
2022-09-13T06:25:45.595Z,14.09
2022-09-13T06:28:13.197Z,14.15
2022-09-13T06:30:40.852Z,14.19
2022-09-13T06:33:08.466Z,14.26
2022-09-13T06:35:36.075Z,14.31
2022-09-13T06:38:03.662Z,14.35
2022-09-13T06:40:32.718Z,14.38
2022-09-13T06:43:00.397Z,14.45
2022-09-13T06:45:28.066Z,14.49
2022-09-13T06:47:56.121Z,14.55
2022-09-13T06:50:23.736Z,14.62
2022-09-13T06:52:51.341Z,14.68
2022-09-13T06:55:18.948Z,14.74
2022-09-13T06:57:47.870Z,14.83
2022-09-13T07:00:16.539Z,14.89
2022-09-13T07:02:44.198Z,14.95
2022-09-13T07:05:11.956Z,15.02
2022-09-13T07:07:39.566Z,15.09
2022-09-13T07:10:08.266Z,15.14
2022-09-13T07:12:35.858Z,15.20
2022-09-13T07:15:05.395Z,15.28
2022-09-13T07:17:32.984Z,15.34
2022-09-13T07:20:00.630Z,15.44
2022-09-13T07:22:28.182Z,15.51
2022-09-13T07:24:57.291Z,15.59
2022-09-13T07:27:24.937Z,15.69
2022-09-13T07:29:52.517Z,15.78
2022-09-13T07:32:22.786Z,15.85
2022-09-13T07:34:50.389Z,15.90
2022-09-13T07:37:17.987Z,15.94
2022-09-13T07:39:45.568Z,15.99
2022-09-13T07:42:13.175Z,16.02
2022-09-13T07:44:40.771Z,16.08
2022-09-13T07:47:08.343Z,16.14
2022-09-13T07:49:37.296Z,16.20
2022-09-13T07:52:04.961Z,16.25
2022-09-13T07:54:34.624Z,16.30
2022-09-13T07:57:02.215Z,16.36
2022-09-13T07:59:30.385Z,16.40
2022-09-13T08:01:58.074Z,16.47
2022-09-13T08:04:26.524Z,16.52
2022-09-13T08:06:55.920Z,16.58
2022-09-13T08:09:24.170Z,16.62
2022-09-13T08:11:53.116Z,16.66
2022-09-13T08:14:23.469Z,16.72
2022-09-13T08:16:51.823Z,16.74
2022-09-13T08:19:20.104Z,16.79
2022-09-13T08:21:48.291Z,16.85
2022-09-13T08:24:18.511Z,16.91
2022-09-13T08:26:47.603Z,16.95
2022-09-13T08:29:16.441Z,17.04
2022-09-13T08:31:44.225Z,17.13
2022-09-13T08:34:12.938Z,17.20
2022-09-13T08:36:41.313Z,17.28
2022-09-13T08:39:10.842Z,17.36
2022-09-13T08:42:13.025Z,17.46
2022-09-13T08:44:47.030Z,17.54
2022-09-13T08:47:32.847Z,17.60
2022-09-13T08:50:07.667Z,17.64
2022-09-13T08:52:41.876Z,17.70
2022-09-13T08:55:24.895Z,17.77
2022-09-13T08:58:01.445Z,17.88
2022-09-13T09:00:36.138Z,17.96
2022-09-13T09:03:20.176Z,18.05
2022-09-13T09:05:49.493Z,18.19
2022-09-13T09:08:31.242Z,18.40
2022-09-13T09:11:04.183Z,18.67
2022-09-13T09:13:36.643Z,18.92
2022-09-13T09:16:08.259Z,19.20
2022-09-13T09:18:40.955Z,19.34
2022-09-13T09:21:14.820Z,19.38
2022-09-13T09:23:50.594Z,19.43
2022-09-13T09:26:19.788Z,19.47
2022-09-13T09:28:52.221Z,19.53
2022-09-13T09:31:27.241Z,19.59
2022-09-13T09:34:06.693Z,19.69
2022-09-13T09:36:40.910Z,19.82
2022-09-13T09:39:12.687Z,19.88
2022-09-13T09:41:40.652Z,19.94
2022-09-13T09:44:18.387Z,20.04
2022-09-13T09:46:51.007Z,20.12
2022-09-13T09:49:40.108Z,20.16
2022-09-13T09:52:11.780Z,20.20
2022-09-13T09:54:41.690Z,20.23
2022-09-13T09:57:09.449Z,20.23
2022-09-13T09:59:38.693Z,20.20
2022-09-13T10:02:17.727Z,20.20
2022-09-13T10:04:56.130Z,20.18
2022-09-13T10:07:29.487Z,20.18
2022-09-13T10:10:01.371Z,20.20
2022-09-13T10:12:33.871Z,20.23
2022-09-13T10:15:16.710Z,20.21
2022-09-13T10:17:44.877Z,20.20
2022-09-13T10:20:26.691Z,20.18
2022-09-13T10:23:17.533Z,20.26
2022-09-13T10:25:48.113Z,20.34
2022-09-13T10:28:19.826Z,20.43
2022-09-13T10:30:55.330Z,20.46
2022-09-13T10:33:29.051Z,20.52
2022-09-13T10:35:59.079Z,20.59
2022-09-13T10:38:31.970Z,20.67
2022-09-13T10:41:02.566Z,20.77
2022-09-13T10:43:33.239Z,20.84
2022-09-13T10:46:05.772Z,20.92
2022-09-13T10:48:47.119Z,20.98
2022-09-13T10:51:32.282Z,21.01
2022-09-13T10:54:18.816Z,21.01
2022-09-13T10:56:47.937Z,21.03
2022-09-13T10:59:23.241Z,21.07
2022-09-13T11:02:22.726Z,21.11
2022-09-13T11:05:10.526Z,21.14
2022-09-13T11:07:49.477Z,21.18
2022-09-13T11:10:23.305Z,21.20
2022-09-13T11:12:58.159Z,21.24
2022-09-13T11:15:41.592Z,21.34
2022-09-13T11:18:46.406Z,21.39
2022-09-13T11:21:25.602Z,21.42
2022-09-13T11:24:14.076Z,21.44
2022-09-13T11:26:56.212Z,21.47
2022-09-13T11:29:40.955Z,21.46
2022-09-13T11:32:24.244Z,21.48
2022-09-13T11:35:13.169Z,21.54
2022-09-13T11:37:51.428Z,21.65
2022-09-13T11:40:31.157Z,21.85
2022-09-13T11:43:20.555Z,22.04
2022-09-13T11:45:56.974Z,22.10
2022-09-13T11:48:53.172Z,22.09
2022-09-13T11:51:32.713Z,22.06
2022-09-13T11:54:14.059Z,22.11
2022-09-13T11:56:45.779Z,22.15
2022-09-13T11:59:22.216Z,22.15
2022-09-13T12:01:55.832Z,22.20
2022-09-13T12:04:33.580Z,22.25
2022-09-13T12:07:09.475Z,22.35
2022-09-13T12:09:42.622Z,22.34
2022-09-13T12:12:13.585Z,22.37
2022-09-13T12:14:46.439Z,22.42
2022-09-13T12:17:25.470Z,22.38
2022-09-13T12:19:59.097Z,22.33
2022-09-13T12:22:31.527Z,22.31
2022-09-13T12:25:03.392Z,22.31
2022-09-13T12:27:40.181Z,22.32
2022-09-13T12:30:15.926Z,22.33
2022-09-13T12:32:45.624Z,22.31
2022-09-13T12:35:24.370Z,22.35
2022-09-13T12:38:10.379Z,22.35
2022-09-13T12:40:53.625Z,22.34
2022-09-13T12:43:37.264Z,22.31
2022-09-13T12:46:28.295Z,22.30
2022-09-13T12:49:26.205Z,22.30
2022-09-13T12:52:19.152Z,22.30
2022-09-13T12:55:19.738Z,22.32
2022-09-13T12:58:06.806Z,22.35
2022-09-13T13:00:40.853Z,22.35
2022-09-13T13:03:17.824Z,22.33
2022-09-13T13:05:48.524Z,22.28
2022-09-13T13:08:29.333Z,22.25
2022-09-13T13:11:08.053Z,22.22
2022-09-13T13:13:40.698Z,22.21
2022-09-13T13:16:27.961Z,22.14
2022-09-13T13:18:56.908Z,22.10
2022-09-13T13:21:40.710Z,22.08
2022-09-13T13:24:40.490Z,22.08
2022-09-13T13:27:48.172Z,22.07
2022-09-13T13:30:50.035Z,22.11
2022-09-13T13:33:31.891Z,22.38
2022-09-13T13:36:24.300Z,22.56
2022-09-13T13:38:53.680Z,22.79
2022-09-13T13:41:40.661Z,22.88
2022-09-13T13:44:41.835Z,22.90
2022-09-13T13:47:54.845Z,22.87
2022-09-13T13:50:22.905Z,22.82
2022-09-13T13:53:03.280Z,22.80
2022-09-13T13:55:41.244Z,22.77
2022-09-13T13:58:25.717Z,22.77
2022-09-13T14:00:55.429Z,22.76
2022-09-13T14:03:32.205Z,22.74
2022-09-13T14:06:11.710Z,22.76
2022-09-13T14:08:53.355Z,22.84
2022-09-13T14:11:36.798Z,22.86
2022-09-13T14:14:21.381Z,22.88
2022-09-13T14:17:00.635Z,22.92
2022-09-13T14:19:29.268Z,22.94
2022-09-13T14:22:16.131Z,22.92
2022-09-13T14:24:48.752Z,22.84
2022-09-13T14:27:20.448Z,22.77
2022-09-13T14:29:51.403Z,22.71
2022-09-13T14:32:23.000Z,22.62
2022-09-13T14:34:57.724Z,22.55
2022-09-13T14:37:31.024Z,22.50
2022-09-13T14:40:02.563Z,22.46
2022-09-13T14:42:39.931Z,22.43
2022-09-13T14:45:13.600Z,22.42
2022-09-13T14:47:49.353Z,22.40
2022-09-13T14:50:21.792Z,22.44
2022-09-13T14:52:51.952Z,22.46
2022-09-13T14:55:26.031Z,22.46
2022-09-13T14:57:58.475Z,22.49
2022-09-13T15:00:27.293Z,22.41
2022-09-13T15:02:58.162Z,22.41
2022-09-13T15:05:29.376Z,22.46
2022-09-13T15:07:57.158Z,22.46
2022-09-13T15:10:29.125Z,22.50
2022-09-13T15:13:09.348Z,22.57
2022-09-13T15:15:38.834Z,22.63
2022-09-13T15:18:24.696Z,22.60
2022-09-13T15:20:54.671Z,22.54
2022-09-13T15:23:25.807Z,22.47
2022-09-13T15:25:57.211Z,22.38
2022-09-13T15:28:28.537Z,22.30
2022-09-13T15:30:58.118Z,22.24
2022-09-13T15:33:28.793Z,22.18
2022-09-13T15:36:17.528Z,22.11
2022-09-13T15:39:00.224Z,22.01
2022-09-13T15:41:33.210Z,22.02
2022-09-13T15:44:01.402Z,22.06
2022-09-13T15:46:29.976Z,22.09
2022-09-13T15:49:00.331Z,22.14
2022-09-13T15:51:28.452Z,22.13
2022-09-13T15:53:56.100Z,22.12
2022-09-13T15:56:37.844Z,22.09
2022-09-13T15:59:05.479Z,22.04
2022-09-13T16:01:33.210Z,22.02
2022-09-13T16:04:03.929Z,21.94
2022-09-13T16:06:31.767Z,21.87
2022-09-13T16:09:00.345Z,21.78
2022-09-13T16:11:28.362Z,21.69
2022-09-13T16:13:58.060Z,21.62
2022-09-13T16:16:25.823Z,21.56
2022-09-13T16:18:53.520Z,21.52
2022-09-13T16:21:21.622Z,21.47
2022-09-13T16:23:49.293Z,21.39
2022-09-13T16:26:16.968Z,21.32
2022-09-13T16:28:44.721Z,21.27
2022-09-13T16:31:15.086Z,21.20
2022-09-13T16:33:42.975Z,21.12
2022-09-13T16:36:13.387Z,21.05
2022-09-13T16:38:41.166Z,20.95
2022-09-13T16:41:09.277Z,20.92
2022-09-13T16:43:37.097Z,20.86
2022-09-13T16:46:08.340Z,20.81
2022-09-13T16:48:38.106Z,20.72
2022-09-13T16:51:07.465Z,20.68
2022-09-13T16:53:36.916Z,20.60
2022-09-13T16:56:09.351Z,20.57
2022-09-13T16:58:42.640Z,20.47
2022-09-13T17:01:11.926Z,20.41
2022-09-13T17:03:44.290Z,20.39
2022-09-13T17:06:13.843Z,20.27
2022-09-13T17:08:49.323Z,20.23
2022-09-13T17:11:19.626Z,20.20
2022-09-13T17:13:49.380Z,20.13
2022-09-13T17:16:23.577Z,20.05
2022-09-13T17:18:53.044Z,19.99
2022-09-13T17:21:21.802Z,19.92
2022-09-13T17:23:49.392Z,19.85
2022-09-13T17:26:17.169Z,19.79
2022-09-13T17:28:44.911Z,19.72
2022-09-13T17:31:12.543Z,19.65
2022-09-13T17:33:40.260Z,19.57
2022-09-13T17:36:11.262Z,19.53
2022-09-13T17:38:39.375Z,19.44
2022-09-13T17:41:09.801Z,19.37
2022-09-13T17:43:37.702Z,19.26
2022-09-13T17:46:06.539Z,19.22
2022-09-13T17:48:34.698Z,19.19
2022-09-13T17:51:03.764Z,19.14
2022-09-13T17:53:33.238Z,19.08
2022-09-13T17:56:00.871Z,19.01
2022-09-13T17:58:28.611Z,18.94
2022-09-13T18:01:02.396Z,18.86
2022-09-13T18:03:30.838Z,18.80
2022-09-13T18:05:59.861Z,18.74
2022-09-13T18:08:28.632Z,18.64
2022-09-13T18:11:13.132Z,18.58
2022-09-13T18:13:42.094Z,18.49
2022-09-13T18:16:16.032Z,18.42
2022-09-13T18:18:47.520Z,18.36
2022-09-13T18:21:18.533Z,18.26
2022-09-13T18:23:47.453Z,18.20
2022-09-13T18:26:17.974Z,18.13
2022-09-13T18:28:47.265Z,18.05
2022-09-13T18:31:16.514Z,17.98
2022-09-13T18:33:45.107Z,17.92
2022-09-13T18:36:14.358Z,17.87
2022-09-13T18:38:43.856Z,17.82
2022-09-13T18:41:14.143Z,17.75
2022-09-13T18:43:46.176Z,17.70
2022-09-13T18:46:16.849Z,17.65
2022-09-13T18:48:46.498Z,17.60
2022-09-13T18:51:15.831Z,17.56
2022-09-13T18:53:44.058Z,17.50
2022-09-13T18:56:13.489Z,17.45
2022-09-13T18:58:44.253Z,17.39
2022-09-13T19:01:14.211Z,17.36
2022-09-13T19:03:48.679Z,17.28
2022-09-13T19:06:18.433Z,17.23
2022-09-13T19:08:47.025Z,17.18
2022-09-13T19:11:42.271Z,17.14
2022-09-13T19:14:05.539Z,17.07
2022-09-13T19:16:33.814Z,16.99
2022-09-13T19:19:01.459Z,16.94
2022-09-13T19:21:31.055Z,16.90
2022-09-13T19:24:03.082Z,16.83
2022-09-13T19:26:35.254Z,16.78
2022-09-13T19:29:06.480Z,16.74
2022-09-13T19:31:36.256Z,16.67
2022-09-13T19:34:06.232Z,16.62
2022-09-13T19:36:35.773Z,16.56
2022-09-13T19:39:05.848Z,16.52
2022-09-13T19:41:33.672Z,16.47
2022-09-13T19:44:02.806Z,16.42
2022-09-13T19:46:34.892Z,16.38
2022-09-13T19:49:03.342Z,16.34
2022-09-13T19:51:33.255Z,16.31
2022-09-13T19:54:01.732Z,16.25
2022-09-13T19:56:32.563Z,16.23
2022-09-13T19:59:00.483Z,16.19
2022-09-13T20:01:30.973Z,16.15
2022-09-13T20:04:02.162Z,16.11
2022-09-13T20:06:34.467Z,16.06
2022-09-13T20:09:02.898Z,16.05
2022-09-13T20:11:31.410Z,16.00
2022-09-13T20:13:59.730Z,15.98
2022-09-13T20:16:30.002Z,15.96
2022-09-13T20:18:58.667Z,15.92
2022-09-13T20:21:29.672Z,15.89
2022-09-13T20:24:00.630Z,15.86
2022-09-13T20:26:28.888Z,15.83
2022-09-13T20:28:58.195Z,15.80
2022-09-13T20:31:26.257Z,15.77
2022-09-13T20:33:58.019Z,15.73
2022-09-13T20:36:28.823Z,15.72
2022-09-13T20:39:02.383Z,15.67
2022-09-13T20:41:31.238Z,15.64
2022-09-13T20:43:59.638Z,15.62
2022-09-13T20:46:27.623Z,15.61
2022-09-13T20:48:55.267Z,15.59
2022-09-13T20:51:25.268Z,15.57
2022-09-13T20:54:00.547Z,15.54
2022-09-13T20:56:29.220Z,15.51
2022-09-13T20:59:00.580Z,15.47
2022-09-13T21:01:30.116Z,15.43
2022-09-13T21:03:58.619Z,15.40
2022-09-13T21:06:28.577Z,15.36
2022-09-13T21:08:59.940Z,15.33
2022-09-13T21:11:30.265Z,15.31
2022-09-13T21:14:00.624Z,15.28
2022-09-13T21:16:30.498Z,15.27
2022-09-13T21:18:58.391Z,15.24
2022-09-13T21:21:29.805Z,15.23
2022-09-13T21:24:00.452Z,15.20
2022-09-13T21:26:30.032Z,15.18
2022-09-13T21:29:00.404Z,15.16
2022-09-13T21:31:30.183Z,15.12
2022-09-13T21:34:00.324Z,15.10
2022-09-13T21:36:29.434Z,15.06
2022-09-13T21:38:58.720Z,15.04
2022-09-13T21:41:28.063Z,15.00
2022-09-13T21:43:55.805Z,14.96
2022-09-13T21:46:25.621Z,14.93
2022-09-13T21:48:56.848Z,14.89
2022-09-13T21:51:25.981Z,14.88
2022-09-13T21:53:58.682Z,14.84
2022-09-13T21:56:30.257Z,14.81
2022-09-13T21:58:59.464Z,14.76
2022-09-13T22:01:29.254Z,14.72
2022-09-13T22:03:57.929Z,14.71
2022-09-13T22:06:29.105Z,14.67
2022-09-13T22:09:01.216Z,14.64
2022-09-13T22:11:32.062Z,14.61
2022-09-13T22:14:00.547Z,14.59
2022-09-13T22:16:30.759Z,14.56
2022-09-13T22:18:59.961Z,14.52
2022-09-13T22:21:30.915Z,14.49
2022-09-13T22:23:58.895Z,14.46
2022-09-13T22:26:27.989Z,14.43
2022-09-13T22:28:58.418Z,14.40
2022-09-13T22:31:28.041Z,14.37
2022-09-13T22:33:56.497Z,14.33
2022-09-13T22:36:25.007Z,14.32
2022-09-13T22:38:55.084Z,14.29
2022-09-13T22:41:25.330Z,14.28
2022-09-13T22:43:53.548Z,14.25
2022-09-13T22:46:24.023Z,14.20
2022-09-13T22:48:52.142Z,14.16
2022-09-13T22:51:19.936Z,14.13
2022-09-13T22:53:49.840Z,14.11
2022-09-13T22:56:19.687Z,14.09
2022-09-13T22:58:48.171Z,14.05
2022-09-13T23:01:19.320Z,14.02
2022-09-13T23:03:49.321Z,14.00
2022-09-13T23:06:19.846Z,13.98
2022-09-13T23:08:48.409Z,13.96
2022-09-13T23:11:18.619Z,13.95
2022-09-13T23:13:47.649Z,13.92
2022-09-13T23:16:17.376Z,13.91
2022-09-13T23:18:45.693Z,13.89
2022-09-13T23:21:15.155Z,13.88
2022-09-13T23:23:43.117Z,13.86
2022-09-13T23:26:13.165Z,13.83
2022-09-13T23:28:40.927Z,13.83
2022-09-13T23:31:13.351Z,13.82
2022-09-13T23:33:41.988Z,13.79
2022-09-13T23:36:12.004Z,13.77
2022-09-13T23:38:42.037Z,13.76
2022-09-13T23:41:10.823Z,13.75
2022-09-13T23:43:38.550Z,13.72
2022-09-13T23:46:06.994Z,13.71
2022-09-13T23:48:35.271Z,13.69
2022-09-13T23:51:04.985Z,13.68
2022-09-13T23:53:33.379Z,13.61
2022-09-13T23:56:03.044Z,13.55
2022-09-13T23:58:32.074Z,13.51
